Time;durP1;ratioP1;P1;durP2;ratioP2;P2;SDS_P1;SDS_P2;PMS_P1;PMS_P2;Temp;Humidity;BMP_temperature;BMP_pressure;BME280_temperature;BME280_humidity;BME280_pressure;Samples;Min_cycle;Max_cycle;Signal;HPM_P1;HPM_P2
2023/08/27 00:01:05;;;;;;;6.40;5.72;;;14.50;99.90;;;;;;5074334;28;20123;-64
2023/08/27 00:03:31;;;;;;;6.63;5.90;;;14.50;99.90;;;;;;5074561;28;20064;-63
2023/08/27 00:05:58;;;;;;;7.35;6.60;;;14.60;99.90;;;;;;5056827;28;20476;-63
2023/08/27 00:08:25;;;;;;;7.10;5.72;;;14.50;99.90;;;;;;5073560;28;20044;-62
2023/08/27 00:10:57;;;;;;;7.03;6.35;;;14.60;99.90;;;;;;5074625;28;20364;-63
2023/08/27 00:13:23;;;;;;;7.18;6.28;;;14.50;99.90;;;;;;5056327;28;20113;-63
2023/08/27 00:15:49;;;;;;;7.47;6.35;;;14.50;99.90;;;;;;5074326;28;20060;-63
2023/08/27 00:18:15;;;;;;;7.05;6.07;;;14.40;99.90;;;;;;5074056;28;20059;-63
2023/08/27 00:20:45;;;;;;;7.20;6.10;;;14.40;99.90;;;;;;5074203;28;20040;-62
2023/08/27 00:23:14;;;;;;;7.18;6.47;;;14.50;99.90;;;;;;5074160;28;20044;-62
2023/08/27 00:25:42;;;;;;;8.40;6.63;;;14.40;99.90;;;;;;5074409;28;20052;-63
2023/08/27 00:28:10;;;;;;;7.10;6.40;;;14.40;99.90;;;;;;5073142;28;20052;-62
2023/08/27 00:30:36;;;;;;;7.65;6.20;;;14.40;99.90;;;;;;5074290;28;20090;-63
2023/08/27 00:33:04;;;;;;;8.07;7.28;;;14.40;99.90;;;;;;5055786;28;20048;-64
2023/08/27 00:35:30;;;;;;;8.82;6.97;;;14.40;99.90;;;;;;5073518;28;20044;-63
2023/08/27 00:37:59;;;;;;;8.98;6.82;;;14.40;99.90;;;;;;5073186;28;20365;-63
2023/08/27 00:40:29;;;;;;;7.03;6.32;;;14.30;99.90;;;;;;5073613;28;20074;-63
2023/08/27 00:42:56;;;;;;;7.20;6.50;;;14.40;99.90;;;;;;5072140;28;20052;-63
2023/08/27 00:45:22;;;;;;;7.47;6.78;;;14.40;99.90;;;;;;5073886;28;20065;-64
2023/08/27 00:47:50;;;;;;;7.93;6.97;;;14.40;99.90;;;;;;5072890;28;20090;-63
2023/08/27 00:50:16;;;;;;;7.47;6.45;;;14.30;99.90;;;;;;5055916;28;20060;-64
2023/08/27 00:52:43;;;;;;;7.53;6.43;;;14.40;99.90;;;;;;5039272;28;20322;-64
2023/08/27 00:55:10;;;;;;;8.18;6.57;;;14.30;99.90;;;;;;5073937;28;20052;-63
2023/08/27 00:57:39;;;;;;;8.00;7.20;;;14.30;99.90;;;;;;5071460;28;20044;-64
2023/08/27 01:00:09;;;;;;;7.18;6.35;;;14.30;99.90;;;;;;5067636;28;20143;-62
2023/08/27 01:02:38;;;;;;;8.02;6.78;;;14.30;99.90;;;;;;5055853;28;20048;-63
2023/08/27 01:05:05;;;;;;;10.23;6.45;;;14.40;99.90;;;;;;5072853;28;20056;-63
2023/08/27 01:08:05;;;;;;;8.00;7.18;;;14.40;99.90;;;;;;5072775;28;20048;-63
2023/08/27 01:11:00;;;;;;;8.15;6.38;;;14.40;99.90;;;;;;5040646;28;20140;-62
2023/08/27 01:13:36;;;;;;;7.85;6.90;;;14.30;99.90;;;;;;5072577;28;20052;-63
2023/08/27 01:16:05;;;;;;;8.02;7.15;;;14.30;99.90;;;;;;5055535;28;20755;-63
2023/08/27 01:18:34;;;;;;;8.02;6.97;;;14.30;99.90;;;;;;5064147;28;20049;-62
2023/08/27 01:21:22;;;;;;;7.93;7.05;;;14.30;99.90;;;;;;5051947;28;20454;-63
2023/08/27 01:23:48;;;;;;;8.77;7.30;;;14.20;99.90;;;;;;5072413;28;20142;-63
2023/08/27 01:26:42;;;;;;;8.13;7.28;;;14.30;99.90;;;;;;5072900;28;20048;-63
2023/08/27 01:29:29;;;;;;;8.43;7.25;;;14.30;99.90;;;;;;5072913;28;20052;-63
2023/08/27 01:32:07;;;;;;;8.15;7.35;;;14.30;99.90;;;;;;5072914;28;20052;-63
2023/08/27 01:34:35;;;;;;;8.43;7.18;;;14.20;99.90;;;;;;5072458;28;20416;-62
2023/08/27 01:37:14;;;;;;;8.23;6.82;;;14.20;99.90;;;;;;5021854;28;20044;-63
2023/08/27 01:39:44;;;;;;;7.35;6.65;;;14.30;99.90;;;;;;5064361;28;20055;-62
2023/08/27 01:42:12;;;;;;;9.02;6.75;;;14.30;99.90;;;;;;5072395;28;20056;-62
2023/08/27 01:44:39;;;;;;;7.30;6.60;;;14.20;99.90;;;;;;5037892;28;20056;-62
2023/08/27 01:47:12;;;;;;;7.78;6.97;;;14.20;99.90;;;;;;5072380;28;20109;-62
2023/08/27 01:49:39;;;;;;;7.95;7.10;;;14.20;99.90;;;;;;5054187;28;20048;-62
2023/08/27 01:52:06;;;;;;;9.05;6.75;;;14.20;99.90;;;;;;5072336;28;20138;-62
2023/08/27 01:54:33;;;;;;;7.95;6.57;;;14.20;99.90;;;;;;5071568;28;20048;-62
2023/08/27 01:57:00;;;;;;;9.10;7.35;;;14.20;99.90;;;;;;5038016;28;20362;-64
2023/08/27 01:59:26;;;;;;;7.05;6.35;;;14.20;99.90;;;;;;5046351;28;20048;-62
2023/08/27 02:01:54;;;;;;;8.38;7.30;;;14.20;99.90;;;;;;5054630;28;20330;-62
2023/08/27 02:04:20;;;;;;;8.05;6.93;;;14.20;99.90;;;;;;5072213;28;20048;-62
2023/08/27 02:06:46;;;;;;;7.47;6.65;;;14.20;99.90;;;;;;5072144;28;20059;-62
2023/08/27 02:09:12;;;;;;;8.35;7.00;;;14.20;99.90;;;;;;5071341;28;20044;-63
2023/08/27 02:11:39;;;;;;;7.53;6.72;;;14.10;99.90;;;;;;5072343;28;20114;-62
2023/08/27 02:14:05;;;;;;;7.55;6.85;;;14.10;99.90;;;;;;5071820;28;20064;-61
2023/08/27 02:16:33;;;;;;;7.97;7.18;;;14.10;99.90;;;;;;5071773;28;20437;-61
2023/08/27 02:19:00;;;;;;;8.00;7.15;;;14.20;99.90;;;;;;5071324;28;20059;-62
2023/08/27 02:21:26;;;;;;;7.93;7.15;;;14.10;99.90;;;;;;5071845;28;20056;-62
2023/08/27 02:23:52;;;;;;;8.50;7.70;;;14.10;99.90;;;;;;5071902;28;20067;-61
2023/08/27 02:26:18;;;;;;;8.65;7.50;;;14.00;99.90;;;;;;5071483;28;20384;-61
2023/08/27 02:28:46;;;;;;;10.40;7.63;;;14.10;99.90;;;;;;5071012;28;20056;-61
2023/08/27 02:31:14;;;;;;;8.18;7.35;;;14.00;99.90;;;;;;5037783;28;20057;-63
2023/08/27 02:33:40;;;;;;;9.27;7.45;;;14.00;99.90;;;;;;5053695;28;20067;-61
2023/08/27 02:36:08;;;;;;;8.18;7.20;;;14.00;99.90;;;;;;5071742;28;20178;-61
2023/08/27 02:38:34;;;;;;;8.27;7.43;;;14.10;99.90;;;;;;5070427;28;20051;-62
2023/08/27 02:41:01;;;;;;;8.90;8.00;;;13.90;99.90;;;;;;5071139;28;20052;-61
2023/08/27 02:43:28;;;;;;;8.32;7.38;;;14.00;99.90;;;;;;5053645;28;20061;-61
2023/08/27 02:45:55;;;;;;;8.00;7.30;;;14.00;99.90;;;;;;5071331;28;20469;-62
2023/08/27 02:48:21;;;;;;;8.70;7.30;;;13.90;99.90;;;;;;5064169;28;20098;-62
2023/08/27 02:50:48;;;;;;;8.23;7.43;;;14.00;99.90;;;;;;5071201;28;20061;-61
2023/08/27 02:53:14;;;;;;;8.10;7.25;;;14.00;99.90;;;;;;5071430;28;20041;-62
2023/08/27 02:55:40;;;;;;;9.10;7.85;;;14.10;99.90;;;;;;5071659;28;20044;-62
2023/08/27 02:58:06;;;;;;;9.35;7.28;;;14.10;99.90;;;;;;5037202;28;20136;-62
2023/08/27 03:00:33;;;;;;;8.95;7.15;;;14.10;99.90;;;;;;5071765;28;20049;-63
2023/08/27 03:03:31;;;;;;;9.05;7.47;;;14.10;99.90;;;;;;5053551;28;20048;-63
2023/08/27 03:05:58;;;;;;;8.50;7.03;;;14.10;99.90;;;;;;5072589;28;20052;-63
2023/08/27 03:08:24;;;;;;;8.02;7.22;;;14.20;99.90;;;;;;5050286;28;20056;-62
2023/08/27 03:10:51;;;;;;;8.07;7.28;;;14.20;99.90;;;;;;5075581;28;20070;-61
2023/08/27 03:13:17;;;;;;;8.38;7.50;;;14.20;99.90;;;;;;5075151;28;20056;-62
2023/08/27 03:15:43;;;;;;;8.65;7.55;;;14.20;99.90;;;;;;5075648;28;20044;-63
2023/08/27 03:18:10;;;;;;;9.48;7.07;;;14.20;99.90;;;;;;5075463;28;20040;-62
2023/08/27 03:20:36;;;;;;;9.13;7.75;;;14.30;99.90;;;;;;5057535;28;20056;-61
2023/08/27 03:23:03;;;;;;;9.40;7.47;;;14.20;99.90;;;;;;5074989;28;20378;-61
2023/08/27 03:25:30;;;;;;;7.78;7.00;;;14.20;99.90;;;;;;5075069;28;20397;-62
2023/08/27 03:27:58;;;;;;;8.10;7.28;;;14.20;99.90;;;;;;5071488;28;20064;-62
2023/08/27 03:30:24;;;;;;;8.07;7.07;;;14.20;99.90;;;;;;5072108;28;20109;-62
2023/08/27 03:32:51;;;;;;;8.68;7.00;;;14.20;99.90;;;;;;5074225;28;20473;-62
2023/08/27 03:35:17;;;;;;;8.13;7.32;;;14.20;99.90;;;;;;5074973;28;20056;-62
2023/08/27 03:37:43;;;;;;;7.43;6.72;;;14.30;99.90;;;;;;5075053;28;20040;-63
2023/08/27 03:40:10;;;;;;;9.90;6.88;;;14.20;99.90;;;;;;5074745;28;20063;-62
2023/08/27 03:42:36;;;;;;;7.82;7.03;;;14.30;99.90;;;;;;5056738;28;20071;-62
2023/08/27 03:45:04;;;;;;;7.78;6.97;;;14.20;99.90;;;;;;5074422;28;20579;-62
2023/08/27 03:47:31;;;;;;;8.60;7.03;;;14.30;99.90;;;;;;5074671;28;20453;-63
2023/08/27 03:49:59;;;;;;;7.90;7.15;;;14.30;99.90;;;;;;5054728;28;20057;-62
2023/08/27 03:52:25;;;;;;;7.82;7.03;;;14.30;99.90;;;;;;5036667;28;20365;-63
2023/08/27 03:54:52;;;;;;;8.50;7.40;;;14.10;99.90;;;;;;5054753;28;20476;-62
2023/08/27 03:57:18;;;;;;;7.72;6.90;;;14.20;99.90;;;;;;5054721;28;20045;-63
2023/08/27 03:59:44;;;;;;;7.75;7.03;;;14.00;99.90;;;;;;5073672;28;20048;-63
2023/08/27 04:02:10;;;;;;;8.45;7.55;;;14.00;99.90;;;;;;5074860;28;20052;-63
2023/08/27 04:04:38;;;;;;;7.63;6.80;;;14.00;99.90;;;;;;5039984;28;20051;-62
2023/08/27 04:07:04;;;;;;;8.30;7.30;;;14.00;99.90;;;;;;5056415;28;20053;-62
2023/08/27 04:09:32;;;;;;;8.02;6.90;;;13.90;99.90;;;;;;5067253;28;20058;-62
2023/08/27 04:11:58;;;;;;;8.40;7.60;;;13.90;99.90;;;;;;5074397;28;20052;-63
2023/08/27 04:14:24;;;;;;;8.52;7.65;;;13.90;99.90;;;;;;5074248;28;20055;-62
2023/08/27 04:16:50;;;;;;;8.52;7.18;;;13.90;99.90;;;;;;5073827;28;20048;-62
2023/08/27 04:19:17;;;;;;;8.80;7.90;;;13.90;99.90;;;;;;5067245;28;20188;-62
2023/08/27 04:21:43;;;;;;;8.32;7.40;;;13.80;99.90;;;;;;5056491;28;20044;-63
2023/08/27 04:24:12;;;;;;;7.88;7.03;;;13.80;99.90;;;;;;5073930;28;20052;-62
2023/08/27 04:26:38;;;;;;;8.80;7.45;;;13.80;99.90;;;;;;5074200;28;20052;-62
2023/08/27 04:29:04;;;;;;;8.75;7.85;;;13.80;99.90;;;;;;5074035;28;20144;-62
2023/08/27 04:31:31;;;;;;;7.60;6.80;;;13.90;99.90;;;;;;5073810;28;20048;-62
2023/08/27 04:33:57;;;;;;;9.32;7.22;;;13.90;99.90;;;;;;5073488;28;20373;-63
2023/08/27 04:36:23;;;;;;;8.65;7.20;;;13.90;99.90;;;;;;5073435;28;20059;-62
2023/08/27 04:38:50;;;;;;;8.18;7.25;;;13.80;99.90;;;;;;5066722;28;20045;-62
2023/08/27 04:41:17;;;;;;;8.70;7.15;;;13.90;99.90;;;;;;5052280;28;20048;-63
2023/08/27 04:43:43;;;;;;;8.23;7.43;;;14.00;99.90;;;;;;5072749;28;20052;-63
2023/08/27 04:46:09;;;;;;;9.00;7.13;;;14.10;99.90;;;;;;5073870;28;20135;-62
2023/08/27 04:48:35;;;;;;;8.25;7.32;;;14.10;99.90;;;;;;5073389;28;20106;-63
2023/08/27 04:51:02;;;;;;;8.40;6.90;;;14.10;99.90;;;;;;5073205;28;20453;-63
2023/08/27 04:53:28;;;;;;;7.57;6.78;;;14.20;99.90;;;;;;5055360;28;20052;-63
2023/08/27 04:55:56;;;;;;;7.50;6.57;;;14.20;99.90;;;;;;5055688;28;20179;-63
2023/08/27 04:58:22;;;;;;;7.30;6.45;;;14.20;99.90;;;;;;5066845;28;20041;-62
2023/08/27 05:00:52;;;;;;;7.90;5.85;;;14.30;99.90;;;;;;5055585;28;20055;-62
2023/08/27 05:03:19;;;;;;;7.53;6.70;;;14.30;99.90;;;;;;5055783;28;20048;-62
2023/08/27 05:05:47;;;;;;;7.97;6.25;;;14.30;99.90;;;;;;5073050;28;20389;-62
2023/08/27 05:08:13;;;;;;;6.85;6.15;;;14.40;99.90;;;;;;5072785;28;20331;-62
2023/08/27 05:10:40;;;;;;;9.15;5.32;;;14.30;99.90;;;;;;5055959;28;20060;-62
2023/08/27 05:13:06;;;;;;;10.90;5.78;;;14.40;99.90;;;;;;5073176;28;20132;-62
2023/08/27 05:15:34;;;;;;;8.13;5.55;;;14.30;99.90;;;;;;5055843;28;20489;-62
2023/08/27 05:18:00;;;;;;;7.00;5.63;;;14.50;99.90;;;;;;5055349;28;20047;-63
2023/08/27 05:20:26;;;;;;;6.65;5.72;;;14.40;99.90;;;;;;5073137;28;20102;-62
2023/08/27 05:22:52;;;;;;;7.93;6.15;;;14.50;99.90;;;;;;5073063;28;20048;-62
2023/08/27 05:25:19;;;;;;;6.95;5.60;;;14.50;99.90;;;;;;5055352;28;20061;-62
2023/08/27 05:27:53;;;;;;;8.82;6.28;;;14.50;99.90;;;;;;5072305;28;20052;-63
2023/08/27 05:30:19;;;;;;;6.85;5.88;;;14.50;99.90;;;;;;5054565;28;20060;-62
2023/08/27 05:32:45;;;;;;;9.68;6.05;;;14.50;99.90;;;;;;5072062;28;20040;-62
2023/08/27 05:35:12;;;;;;;7.25;5.88;;;14.50;99.90;;;;;;5038733;28;20120;-62
2023/08/27 05:37:38;;;;;;;7.35;5.95;;;14.40;99.90;;;;;;5072184;28;20052;-62
2023/08/27 05:40:06;;;;;;;8.65;5.88;;;14.50;99.90;;;;;;5066371;28;20410;-63
2023/08/27 05:42:33;;;;;;;8.40;6.13;;;14.50;99.90;;;;;;5072403;28;20052;-63
2023/08/27 05:45:00;;;;;;;7.30;5.70;;;14.40;99.90;;;;;;5072362;28;20464;-63
2023/08/27 05:47:26;;;;;;;7.03;5.53;;;14.40;99.90;;;;;;5072598;28;20463;-62
2023/08/27 05:49:53;;;;;;;7.15;5.85;;;14.50;99.90;;;;;;5037559;28;20059;-62
2023/08/27 05:52:19;;;;;;;12.40;6.40;;;14.40;99.90;;;;;;5071686;28;20400;-62
2023/08/27 05:54:46;;;;;;;7.95;5.90;;;14.50;99.90;;;;;;5054974;28;20044;-62
2023/08/27 05:57:12;;;;;;;8.45;6.20;;;14.50;99.90;;;;;;5054904;28;20045;-62
2023/08/27 05:59:39;;;;;;;9.15;5.95;;;14.50;99.90;;;;;;5066318;28;20052;-63
2023/08/27 06:02:07;;;;;;;8.05;5.57;;;14.50;99.90;;;;;;5055045;28;20166;-63
2023/08/27 06:04:35;;;;;;;7.32;5.40;;;14.50;99.90;;;;;;5021847;28;20056;-63
2023/08/27 06:07:01;;;;;;;7.93;4.75;;;14.40;99.90;;;;;;5037705;28;20052;-63
2023/08/27 06:09:28;;;;;;;6.28;4.85;;;14.40;99.90;;;;;;5054142;28;20052;-63
2023/08/27 06:11:54;;;;;;;8.75;4.57;;;14.40;99.90;;;;;;5072446;28;20055;-64
2023/08/27 06:14:20;;;;;;;5.57;4.25;;;14.40;99.90;;;;;;5071592;28;20044;-64
2023/08/27 06:16:48;;;;;;;6.80;4.05;;;14.40;99.90;;;;;;5072067;28;20045;-63
2023/08/27 06:19:14;;;;;;;7.15;4.55;;;14.40;99.90;;;;;;5047926;28;20090;-63
2023/08/27 06:21:41;;;;;;;6.97;4.40;;;14.40;99.90;;;;;;5053344;28;20053;-63
2023/08/27 06:24:07;;;;;;;7.72;4.90;;;14.40;99.90;;;;;;5071393;28;20052;-63
2023/08/27 06:26:33;;;;;;;5.40;4.00;;;14.40;99.90;;;;;;5037658;28;20060;-63
2023/08/27 06:29:01;;;;;;;6.43;4.30;;;14.40;99.90;;;;;;5071293;28;20448;-63
2023/08/27 06:31:27;;;;;;;5.72;4.30;;;14.40;99.90;;;;;;5071651;28;20048;-64
2023/08/27 06:33:53;;;;;;;8.10;4.65;;;14.30;99.90;;;;;;5053638;28;20041;-63
2023/08/27 06:36:21;;;;;;;8.48;4.75;;;14.50;99.90;;;;;;5071794;28;20186;-63
2023/08/27 06:38:47;;;;;;;6.60;4.55;;;14.50;99.90;;;;;;5065932;28;20055;-62
2023/08/27 06:41:15;;;;;;;5.30;4.45;;;14.40;99.90;;;;;;5074717;28;20062;-64
2023/08/27 06:43:41;;;;;;;6.25;4.40;;;14.40;99.90;;;;;;5075810;28;20049;-64
2023/08/27 06:46:08;;;;;;;8.70;4.57;;;14.40;99.90;;;;;;5075732;28;20400;-63
2023/08/27 06:48:34;;;;;;;6.25;4.32;;;14.50;99.90;;;;;;5075671;28;20115;-63
2023/08/27 06:51:01;;;;;;;6.07;4.38;;;14.40;99.90;;;;;;5057900;28;20461;-63
2023/08/27 06:53:27;;;;;;;6.70;4.45;;;14.40;99.90;;;;;;5075014;28;20052;-65
2023/08/27 06:55:53;;;;;;;7.28;3.83;;;14.40;99.90;;;;;;5075486;28;20048;-63
2023/08/27 06:58:19;;;;;;;4.93;4.15;;;14.50;99.90;;;;;;5069953;28;20528;-63
2023/08/27 07:00:46;;;;;;;6.50;3.97;;;14.50;99.90;;;;;;5056516;28;20388;-63
2023/08/27 07:03:13;;;;;;;7.95;5.03;;;14.50;99.90;;;;;;5058179;28;20135;-63
2023/08/27 07:05:39;;;;;;;7.40;4.38;;;14.60;99.90;;;;;;5057850;28;20495;-63
2023/08/27 07:08:05;;;;;;;6.03;4.28;;;14.50;99.90;;;;;;5074818;28;20045;-63
2023/08/27 07:10:32;;;;;;;6.13;4.07;;;14.80;99.90;;;;;;5075402;28;20113;-63
2023/08/27 07:12:58;;;;;;;7.80;4.68;;;15.30;99.90;;;;;;5075044;28;20062;-64
2023/08/27 07:15:24;;;;;;;5.13;4.38;;;15.60;99.90;;;;;;5075426;28;20045;-64
2023/08/27 07:17:50;;;;;;;6.15;4.25;;;16.00;99.90;;;;;;5074002;28;20399;-64
2023/08/27 07:20:17;;;;;;;8.10;5.13;;;16.10;99.90;;;;;;5070286;28;20473;-64
2023/08/27 07:22:43;;;;;;;5.75;4.90;;;16.20;99.90;;;;;;5074965;28;20353;-65
2023/08/27 07:25:10;;;;;;;6.70;4.38;;;16.30;99.90;;;;;;5075117;28;20411;-63
2023/08/27 07:27:36;;;;;;;5.70;4.18;;;16.40;99.90;;;;;;5057012;28;20052;-64
2023/08/27 07:30:04;;;;;;;5.82;3.80;;;16.50;99.90;;;;;;5074906;28;20095;-63
2023/08/27 07:32:31;;;;;;;5.45;3.35;;;16.50;99.90;;;;;;5074674;28;20052;-63
2023/08/27 07:34:58;;;;;;;4.75;3.42;;;16.70;99.90;;;;;;5057190;28;20045;-64
2023/08/27 07:37:24;;;;;;;4.32;3.20;;;16.90;99.90;;;;;;5074923;28;20059;-63
2023/08/27 07:39:50;;;;;;;6.13;3.72;;;16.90;99.90;;;;;;5069021;28;20090;-63
2023/08/27 07:42:17;;;;;;;5.55;3.60;;;17.00;99.90;;;;;;5074495;28;20118;-64
2023/08/27 07:44:44;;;;;;;4.65;3.45;;;17.20;99.90;;;;;;5040437;28;20071;-64
2023/08/27 07:47:10;;;;;;;5.30;3.90;;;17.30;99.90;;;;;;5074957;28;20048;-63
2023/08/27 07:49:37;;;;;;;6.22;3.85;;;17.30;99.90;;;;;;5056431;28;20104;-63
2023/08/27 07:52:03;;;;;;;4.85;3.70;;;17.40;99.90;;;;;;5055391;28;20052;-63
2023/08/27 07:54:32;;;;;;;5.30;4.05;;;17.50;99.90;;;;;;5074658;28;20514;-63
2023/08/27 07:56:58;;;;;;;6.57;4.18;;;17.70;99.90;;;;;;5056668;28;20482;-63
2023/08/27 07:59:24;;;;;;;5.85;3.70;;;17.90;99.90;;;;;;5069191;28;20048;-63
2023/08/27 08:01:51;;;;;;;5.32;4.05;;;17.90;99.90;;;;;;5074791;28;20053;-63
2023/08/27 08:04:18;;;;;;;5.47;3.80;;;17.80;99.90;;;;;;5056451;28;20057;-63
2023/08/27 08:06:44;;;;;;;4.72;3.85;;;18.10;99.90;;;;;;5074400;28;20413;-64
2023/08/27 08:09:10;;;;;;;5.35;4.35;;;18.20;99.90;;;;;;5074149;28;20322;-63
2023/08/27 08:11:37;;;;;;;6.20;4.00;;;18.30;99.90;;;;;;5074321;28;20117;-63
2023/08/27 08:14:03;;;;;;;6.05;4.88;;;18.20;99.90;;;;;;5073670;28;20237;-63
2023/08/27 08:16:29;;;;;;;7.78;5.38;;;18.20;99.90;;;;;;5073965;28;20374;-63
2023/08/27 08:18:55;;;;;;;5.78;4.72;;;18.20;99.90;;;;;;5068911;28;20147;-62
2023/08/27 08:21:21;;;;;;;7.07;5.47;;;18.20;99.90;;;;;;5073745;28;20098;-63
2023/08/27 08:23:48;;;;;;;6.38;5.60;;;18.00;99.90;;;;;;5073568;28;20110;-63
2023/08/27 08:26:14;;;;;;;7.50;5.18;;;18.30;99.90;;;;;;5074036;28;20049;-63
2023/08/27 08:28:40;;;;;;;6.97;5.47;;;18.40;99.90;;;;;;5055853;28;20048;-63
2023/08/27 08:31:06;;;;;;;8.77;6.32;;;18.50;99.90;;;;;;5074120;28;20048;-63
2023/08/27 08:33:34;;;;;;;8.40;6.03;;;18.60;99.90;;;;;;5055762;28;20051;-63
2023/08/27 08:36:01;;;;;;;8.35;6.43;;;18.60;99.90;;;;;;5055924;28;20206;-63
2023/08/27 08:38:27;;;;;;;7.85;6.30;;;18.70;99.90;;;;;;5051272;28;20044;-63
2023/08/27 08:40:59;;;;;;;9.23;7.05;;;18.70;99.90;;;;;;5063940;28;20488;-63
2023/08/27 08:43:30;;;;;;;7.93;6.72;;;18.80;99.90;;;;;;5053382;28;20466;-63
2023/08/27 08:46:03;;;;;;;7.07;6.38;;;18.90;99.90;;;;;;5053919;28;20103;-62
2023/08/27 08:48:33;;;;;;;8.18;6.65;;;19.10;99.90;;;;;;5035796;28;20052;-63
2023/08/27 08:51:03;;;;;;;8.40;6.40;;;19.10;99.90;;;;;;5036251;28;20048;-64
2023/08/27 08:53:33;;;;;;;6.55;5.90;;;19.30;99.90;;;;;;5035344;28;20260;-63
2023/08/27 08:56:04;;;;;;;8.93;6.63;;;19.30;99.90;;;;;;5019445;28;20432;-63
2023/08/27 08:58:34;;;;;;;9.02;7.25;;;19.40;99.90;;;;;;5035789;28;20377;-63
2023/08/27 09:01:03;;;;;;;9.20;7.10;;;19.30;99.90;;;;;;5035520;28;20432;-63
2023/08/27 09:03:31;;;;;;;6.30;5.68;;;19.20;99.90;;;;;;5034394;28;20045;-63
2023/08/27 09:05:59;;;;;;;6.88;5.93;;;19.20;99.90;;;;;;5053400;28;20098;-64
2023/08/27 09:08:26;;;;;;;6.22;5.65;;;19.40;99.90;;;;;;5036347;28;20041;-63
2023/08/27 09:10:56;;;;;;;5.50;4.65;;;19.20;99.90;;;;;;5036381;28;20048;-63
2023/08/27 09:13:23;;;;;;;5.90;4.60;;;19.30;99.90;;;;;;5035983;28;20504;-63
2023/08/27 09:15:50;;;;;;;5.05;4.50;;;19.20;99.90;;;;;;5054103;28;20404;-63
2023/08/27 09:18:17;;;;;;;6.90;5.60;;;19.40;99.90;;;;;;5053390;28;20469;-63
2023/08/27 09:20:55;;;;;;;4.97;4.47;;;19.50;99.90;;;;;;5036560;28;20049;-63
2023/08/27 09:23:22;;;;;;;6.10;4.22;;;19.60;99.90;;;;;;5053585;28;20106;-63
2023/08/27 09:25:50;;;;;;;6.43;4.60;;;19.60;99.90;;;;;;5054224;28;20049;-63
2023/08/27 09:28:18;;;;;;;5.78;5.20;;;19.50;99.90;;;;;;5019513;28;20046;-63
2023/08/27 09:30:44;;;;;;;5.65;4.72;;;19.50;99.90;;;;;;5054036;28;20079;-63
2023/08/27 09:33:11;;;;;;;5.50;5.00;;;19.50;99.90;;;;;;5053559;28;20060;-62
2023/08/27 09:35:39;;;;;;;7.43;5.05;;;19.40;99.90;;;;;;5053499;28;20068;-62
2023/08/27 09:38:05;;;;;;;6.53;5.78;;;19.30;99.90;;;;;;5053393;28;20057;-63
2023/08/27 09:40:32;;;;;;;10.23;6.70;;;19.00;99.90;;;;;;5053550;28;20041;-62
2023/08/27 09:43:04;;;;;;;8.20;7.00;;;18.90;99.90;;;;;;5036299;28;20045;-63
2023/08/27 09:45:33;;;;;;;8.93;7.63;;;18.90;99.90;;;;;;5036486;28;20132;-62
2023/08/27 09:48:00;;;;;;;8.15;7.35;;;19.00;99.90;;;;;;5034616;28;20350;-63
2023/08/27 09:50:31;;;;;;;7.25;6.13;;;19.20;99.90;;;;;;5032690;28;20048;-62
2023/08/27 09:53:05;;;;;;;8.98;6.93;;;19.10;99.90;;;;;;5052929;28;20148;-62
2023/08/27 09:55:33;;;;;;;9.73;7.68;;;19.10;99.90;;;;;;5035639;28;20461;-62
2023/08/27 09:57:59;;;;;;;8.43;7.55;;;18.90;99.90;;;;;;5035784;28;20454;-63
2023/08/27 10:00:29;;;;;;;9.70;7.78;;;18.70;99.90;;;;;;5039366;28;20056;-63
2023/08/27 10:02:56;;;;;;;11.00;7.68;;;18.60;99.90;;;;;;5072874;28;20044;-63
2023/08/27 10:05:33;;;;;;;9.18;7.70;;;18.50;99.90;;;;;;5073144;28;20060;-64
2023/08/27 10:08:02;;;;;;;8.63;7.45;;;18.50;99.90;;;;;;5038094;28;20044;-63
2023/08/27 10:10:29;;;;;;;10.05;7.28;;;18.40;99.90;;;;;;5035411;28;20106;-63
2023/08/27 10:12:56;;;;;;;7.95;6.97;;;18.80;99.90;;;;;;5052846;28;20057;-63
2023/08/27 10:15:24;;;;;;;7.45;6.60;;;19.00;99.90;;;;;;5052752;28;20052;-63
2023/08/27 10:17:52;;;;;;;8.32;7.45;;;19.20;99.90;;;;;;5018749;28;20226;-63
2023/08/27 10:20:19;;;;;;;7.75;6.95;;;19.00;99.90;;;;;;5052747;28;20144;-63
2023/08/27 10:22:47;;;;;;;10.68;7.10;;;19.10;99.90;;;;;;5052294;28;20045;-62
2023/08/27 10:25:19;;;;;;;8.00;6.28;;;19.20;99.90;;;;;;5052890;28;20053;-63
2023/08/27 10:27:49;;;;;;;10.00;6.97;;;19.20;99.90;;;;;;5053037;28;20053;-64
2023/08/27 10:30:17;;;;;;;8.25;7.35;;;19.20;99.90;;;;;;5052421;28;20117;-63
2023/08/27 10:32:44;;;;;;;8.68;7.22;;;19.30;99.90;;;;;;5034962;28;20392;-64
2023/08/27 10:35:11;;;;;;;8.65;6.93;;;19.40;99.90;;;;;;5052434;28;20366;-62
2023/08/27 10:37:41;;;;;;;7.80;7.00;;;19.50;99.90;;;;;;5052816;28;20045;-63
2023/08/27 10:40:10;;;;;;;8.15;6.80;;;19.60;99.90;;;;;;5018498;28;20049;-64
2023/08/27 10:42:36;;;;;;;8.18;6.60;;;19.80;99.90;;;;;;5052269;28;20397;-63
2023/08/27 10:45:10;;;;;;;8.05;6.78;;;19.90;99.90;;;;;;5035081;28;20108;-63
2023/08/27 10:47:37;;;;;;;9.48;7.05;;;19.90;99.90;;;;;;5035404;28;20048;-62
2023/08/27 10:50:04;;;;;;;8.35;6.85;;;19.90;99.90;;;;;;5034819;28;20057;-63
2023/08/27 10:52:50;;;;;;;8.45;6.43;;;19.90;99.90;;;;;;5052227;28;20118;-64
2023/08/27 10:55:20;;;;;;;9.43;6.38;;;19.90;99.90;;;;;;5052633;28;20487;-62
2023/08/27 10:57:47;;;;;;;8.18;6.03;;;19.90;99.90;;;;;;5035183;28;20049;-63
2023/08/27 11:00:14;;;;;;;7.13;6.43;;;19.90;99.90;;;;;;5052337;28;20045;-64
2023/08/27 11:02:59;;;;;;;7.10;6.00;;;19.70;99.90;;;;;;5034552;28;20136;-63
2023/08/27 11:05:29;;;;;;;7.35;6.03;;;19.70;99.90;;;;;;5052681;28;20063;-62
2023/08/27 11:07:59;;;;;;;7.72;5.57;;;19.50;99.90;;;;;;5034773;28;20049;-63
2023/08/27 11:10:32;;;;;;;6.75;5.10;;;19.40;99.90;;;;;;5052534;28;20056;-62
2023/08/27 11:12:58;;;;;;;6.38;4.90;;;19.30;99.90;;;;;;5017793;28;20392;-64
2023/08/27 11:15:33;;;;;;;7.45;5.78;;;19.20;99.90;;;;;;5035024;28;20060;-63
2023/08/27 11:18:20;;;;;;;7.70;6.47;;;19.20;99.90;;;;;;5035925;28;20128;-63
2023/08/27 11:20:46;;;;;;;6.78;6.00;;;19.10;99.90;;;;;;5032689;28;20045;-64
2023/08/27 11:23:12;;;;;;;6.13;5.57;;;19.10;99.90;;;;;;5032091;28;20108;-64
2023/08/27 11:25:39;;;;;;;6.15;5.07;;;19.10;99.90;;;;;;5032775;28;20136;-63
2023/08/27 11:28:07;;;;;;;5.82;5.00;;;19.10;99.90;;;;;;5036508;28;20049;-63
2023/08/27 11:30:33;;;;;;;5.60;5.00;;;19.00;99.90;;;;;;5056066;28;20132;-64
2023/08/27 11:32:59;;;;;;;7.95;5.55;;;19.10;99.90;;;;;;5055767;28;20057;-63
2023/08/27 11:35:40;;;;;;;7.78;5.85;;;19.10;99.90;;;;;;5056039;28;20045;-63
2023/08/27 11:38:10;;;;;;;7.93;7.18;;;19.20;99.90;;;;;;5055915;28;20067;-63
2023/08/27 11:40:37;;;;;;;7.70;6.32;;;19.40;99.90;;;;;;5037897;28;20437;-62
2023/08/27 11:43:04;;;;;;;4.15;2.42;;;19.50;99.90;;;;;;5055432;28;20056;-62
2023/08/27 11:45:34;;;;;;;2.58;1.75;;;19.40;99.90;;;;;;5055514;28;20053;-61
2023/08/27 11:48:05;;;;;;;2.95;1.58;;;19.60;99.90;;;;;;5037993;28;20074;-63
2023/08/27 11:50:33;;;;;;;2.38;1.40;;;19.60;99.90;;;;;;5035702;28;20088;-62
2023/08/27 11:53:04;;;;;;;1.95;1.20;;;19.20;99.90;;;;;;5035341;28;20136;-62
2023/08/27 11:55:31;;;;;;;2.80;1.20;;;19.00;99.90;;;;;;5018280;28;20099;-63
2023/08/27 11:57:58;;;;;;;1.70;1.20;;;18.80;99.90;;;;;;5035553;28;20049;-62
2023/08/27 12:00:25;;;;;;;3.22;1.40;;;18.60;99.90;;;;;;5055039;28;20075;-61
2023/08/27 12:02:51;;;;;;;2.45;1.38;;;18.50;99.90;;;;;;5037572;28;20040;-63
2023/08/27 12:05:20;;;;;;;2.55;1.30;;;18.60;99.90;;;;;;5055256;28;20430;-62
2023/08/27 12:07:46;;;;;;;2.53;1.40;;;18.60;99.90;;;;;;5037855;28;20348;-62
2023/08/27 12:10:17;;;;;;;1.80;1.20;;;18.70;99.90;;;;;;5054274;28;20057;-62
2023/08/27 12:12:44;;;;;;;2.30;1.40;;;18.80;99.90;;;;;;5055022;28;20052;-63
2023/08/27 12:15:11;;;;;;;2.40;1.42;;;18.80;99.90;;;;;;5037854;28;20045;-62
2023/08/27 12:17:37;;;;;;;3.22;1.50;;;18.80;99.90;;;;;;5055335;28;20041;-62
2023/08/27 12:20:07;;;;;;;2.55;1.30;;;18.90;99.90;;;;;;5051951;28;20053;-62
2023/08/27 12:22:44;;;;;;;2.40;1.30;;;18.90;99.90;;;;;;5054838;28;20339;-63
2023/08/27 12:25:11;;;;;;;1.92;0.93;;;19.00;99.90;;;;;;5038003;28;20060;-62
2023/08/27 12:27:40;;;;;;;2.78;1.50;;;19.00;99.90;;;;;;5055629;28;20057;-62
2023/08/27 12:30:07;;;;;;;2.70;1.50;;;19.20;99.90;;;;;;5054686;28;20053;-62
2023/08/27 12:32:34;;;;;;;2.65;1.45;;;19.20;99.90;;;;;;5037199;28;20413;-62
2023/08/27 12:35:01;;;;;;;2.97;1.85;;;19.20;99.90;;;;;;5036761;28;20377;-62
2023/08/27 12:37:27;;;;;;;2.92;1.75;;;19.10;99.90;;;;;;5037207;28;20083;-63
2023/08/27 12:39:55;;;;;;;5.90;3.88;;;18.90;99.90;;;;;;5036620;28;20056;-62
2023/08/27 12:42:25;;;;;;;4.00;2.08;;;18.70;99.90;;;;;;5036959;28;20048;-63
2023/08/27 12:44:52;;;;;;;4.30;2.97;;;18.50;99.90;;;;;;5037422;28;20083;-63
2023/08/27 12:47:20;;;;;;;5.78;5.20;;;18.20;99.90;;;;;;5037737;28;20052;-62
2023/08/27 12:49:46;;;;;;;10.07;8.38;;;18.20;99.90;;;;;;5053664;28;20049;-62